ADDS METAR Data INFO
IDs: Format: Raw Decoded Include TAF

Data at: 1914 UTC 19 Jul 2018

K3N8 191855Z AUTO 02007KT 10SM SCT050 BKN110 23/19 A2981 RMK AO2 T02250191
K3N8 191835Z AUTO 04005KT 10SM SCT110 23/19 A2981 RMK AO2 T02260188
K3N8 191815Z AUTO 03008KT 10SM BKN110 23/19 A2981 RMK AO2 T02250191
K3N8 191755Z AUTO 02005KT 10SM SCT042 SCT070 OVC110 22/19 A2981 RMK AO2 LTG DSNT NE T02240190 10225 20190
K3N8 191735Z AUTO 03007KT 10SM SCT042 SCT060 BKN110 23/19 A2981 RMK AO2 T02250189
K3N8 191715Z AUTO 03005KT 10SM SCT042 BKN060 BKN120 22/19 A2982 RMK AO2 T02230188
K3N8 191655Z AUTO 05004KT 10SM SCT120 22/19 A2981 RMK AO2 T02210190
K3N8 191635Z AUTO 04004KT 10SM SCT120 22/19 A2981 RMK AO2 T02170187
K3N8 191615Z AUTO 03003KT 10SM SCT120 22/19 A2980 RMK AO2 T02160186
K3N8 191555Z AUTO 07003KT 10SM CLR 22/18 A2980 RMK AO2 T02150181
K3N8 191535Z AUTO 00000KT 10SM CLR 22/18 A2981 RMK AO2 T02150179
K3N8 191515Z AUTO 00000KT 10SM SCT120 21/17 A2981 RMK AO2 T02100174
K3N8 191455Z AUTO 13003KT 10SM SCT120 21/18 A2981 RMK AO2 T02070177
K3N8 191435Z AUTO 15003KT 10SM SCT120 21/18 A2981 RMK AO2 T02070176
K3N8 191415Z AUTO 13003KT 10SM SCT120 21/18 A2981 RMK AO2 T02070176
K3N8 191355Z AUTO 13003KT 10SM CLR 21/18 A2981 RMK AO2 T02060175
K3N8 191335Z AUTO 13006KT 10SM CLR 21/17 A2981 RMK AO2 T02060172
K3N8 191315Z AUTO 13007KT 10SM CLR 21/17 A2981 RMK AO2 T02050171
K3N8 191255Z AUTO 13007KT 10SM CLR 20/17 A2981 RMK AO2 T01970170
K3N8 191235Z AUTO 14006KT 10SM CLR 19/17 A2982 RMK AO2 T01930168
K3N8 191215Z AUTO 13005KT 10SM CLR 19/17 A2982 RMK AO2 T01910167
K3N8 191155Z AUTO 13005KT 10SM SCT065 19/17 A2982 RMK AO2 T01910168 10198 20187
K3N8 191135Z AUTO 13007KT 10SM SCT065 SCT090 19/17 A2982 RMK AO2 T01900167
K3N8 191115Z AUTO 13006KT 10SM SCT065 SCT080 19/17 A2982 RMK AO2 T01900166
K3N8 191055Z AUTO 14007KT 10SM SCT065 BKN080 19/17 A2983 RMK AO2 T01880167
K3N8 191035Z AUTO 13007KT 10SM SCT065 BKN080 19/17 A2984 RMK AO2 T01880167
K3N8 191015Z AUTO 13008KT 10SM BKN065 OVC080 19/17 A2984 RMK AO2 T01890168
K3N8 190955Z AUTO 13008KT 10SM SCT065 BKN080 19/17 A2985 RMK AO2 T01890170
K3N8 190935Z AUTO 12005KT 10SM CLR 19/17 A2985 RMK AO2 T01870170
K3N8 190915Z AUTO 13005KT 10SM CLR 19/17 A2985 RMK AO2 T01870170
K3N8 190855Z AUTO 13004KT 10SM CLR 19/17 A2985 RMK AO2 T01900172
K3N8 190835Z AUTO 13005KT 10SM CLR 19/17 A2986 RMK AO2 T01900174
K3N8 190815Z AUTO 13005KT 10SM CLR 19/18 A2987 RMK AO2 T01910175
K3N8 190755Z AUTO 11004KT 10SM CLR 19/18 A2987 RMK AO2 T01910177
K3N8 190735Z AUTO 13004KT 10SM CLR 19/18 A2988 RMK AO2 T01930178
K3N8 190715Z AUTO 13004KT 10SM CLR 20/18 A2989 RMK AO2 LTG DSNT S T01980181
K3N8 190655Z AUTO 14006KT 10SM CLR 20/18 A2989 RMK AO2 T01970181
K3N8 190635Z AUTO 14006KT 10SM CLR 20/18 A2989 RMK AO2 T01980183
K3N8 190615Z AUTO 14004KT 10SM CLR 20/18 A2989 RMK AO2 T01960182
K3N8 190555Z AUTO 15005KT 10SM CLR 20/18 A2989 RMK AO2 T01960182 10245 20191 402660125
K3N8 190535Z AUTO 14004KT 10SM CLR 20/18 A2990 RMK AO2 T01960183
K3N8 190515Z AUTO 14005KT 10SM CLR 20/18 A2990 RMK AO2 T01960183
K3N8 190455Z AUTO 13005KT 10SM CLR 20/18 A2991 RMK AO2 T01950181
K3N8 190435Z AUTO 14004KT 10SM CLR 19/18 A2990 RMK AO2 T01910176
K3N8 190415Z AUTO 14004KT 10SM CLR 20/18 A2991 RMK AO2 T01950177
K3N8 190355Z AUTO 13005KT 10SM CLR 20/18 A2991 RMK AO2 T01980178
K3N8 190335Z AUTO 14004KT 10SM CLR 20/18 A2991 RMK AO2 T02000180
K3N8 190315Z AUTO 14004KT 10SM CLR 20/18 A2992 RMK AO2 T02040182
K3N8 190255Z AUTO 14004KT 10SM CLR 21/19 A2992 RMK AO2 T02100185
K3N8 190235Z AUTO 14005KT 10SM CLR 22/19 A2992 RMK AO2 T02150188
K3N8 190215Z AUTO 14004KT 10SM CLR 22/19 A2992 RMK AO2 T02180192
K3N8 190155Z AUTO 15004KT 10SM CLR 22/20 A2992 RMK AO2 T02240197
K3N8 190135Z AUTO 15003KT 10SM CLR 23/19 A2992 RMK AO2 T02300193
K3N8 190115Z AUTO 00000KT 10SM CLR 23/20 A2994 RMK AO2 T02320195
K3N8 190055Z AUTO 00000KT 10SM CLR 24/20 A2994 RMK AO2 T02430196
K3N8 190035Z AUTO 16003KT 10SM CLR 24/20 A2994 RMK AO2 T02430196
K3N8 190015Z AUTO 17003KT 10SM CLR 24/20 A2995 RMK AO2 T02400196
K3N8 182355Z AUTO 17003KT 10SM CLR 24/19 A2995 RMK AO2 T02430190 10266 20243
K3N8 182335Z AUTO 17006KT 10SM CLR 25/19 A2995 RMK AO2 T02490188
K3N8 182315Z AUTO 18006KT 10SM CLR 25/19 A2995 RMK AO2 T02510191
K3N8 182255Z AUTO 18006KT 10SM CLR 25/19 A2996 RMK AO2 T02510192
K3N8 182235Z AUTO 18006KT 10SM CLR 25/19 A2996 RMK AO2 T02500189
K3N8 182215Z AUTO 17006KT 10SM CLR 25/19 A2997 RMK AO2 T02500189
K3N8 182155Z AUTO 19008KT 10SM CLR 25/19 A2997 RMK AO2 T02540188
K3N8 182135Z AUTO 18008KT 10SM SCT037 SCT044 26/19 A2998 RMK AO2 T02590187
K3N8 182115Z AUTO 18008G15KT 10SM BKN037 BKN044 26/19 A2998 RMK AO2 T02640187
K3N8 182055Z AUTO 16006KT 10SM SCT039 26/19 A2999 RMK AO2 T02640192
K3N8 182035Z AUTO 16004KT 10SM CLR 26/19 A2999 RMK AO2 T02600189
K3N8 182015Z AUTO 15007KT 10SM CLR 26/19 A3000 RMK AO2 T02590185
K3N8 181955Z AUTO 19006KT 10SM CLR 26/18 A3000 RMK AO2 T02590177
K3N8 181935Z AUTO 17007KT 140V200 10SM CLR 26/19 A3001 RMK AO2 T02570185
K3N8 181915Z AUTO 19007KT 10SM SCT036 SCT050 26/19 A3001 RMK AO2 T02600187
K3N8 181855Z AUTO 19009KT 10SM SCT036 BKN046 BKN055 26/18 A3001 RMK AO2 T02550184
K3N8 181835Z AUTO 19008KT 10SM SCT036 BKN046 OVC050 25/18 A3002 RMK AO2 T02520178
K3N8 181815Z AUTO 20007KT 10SM SCT034 BKN050 BKN060 26/18 A3002 RMK AO2 T02590182
K3N8 181755Z AUTO 17007KT 10SM SCT034 BKN050 26/18 A3002 RMK AO2 T02590183 10260 20162
K3N8 181735Z AUTO 16008KT 140V200 10SM SCT034 SCT050 26/18 A3003 RMK AO2 T02580182
K3N8 181715Z AUTO 17006G14KT 10SM CLR 26/18 A3003 RMK AO2 T02570182
K3N8 181655Z AUTO 15007KT 10SM CLR 25/18 A3003 RMK AO2 T02510176
K3N8 181635Z AUTO 17007KT 10SM CLR 25/17 A3004 RMK AO2 T02460172
K3N8 181615Z AUTO 18007KT 160V220 10SM CLR 25/18 A3004 RMK AO2 T02480178
K3N8 181555Z AUTO 18007KT 10SM CLR 24/18 A3005 RMK AO2 T02420175
K3N8 181535Z AUTO 18006KT 10SM CLR 23/17 A3006 RMK AO2 T02330167
K3N8 181515Z AUTO 17008KT 10SM CLR 23/17 A3007 RMK AO2 T02310170
K3N8 181455Z AUTO 18007KT 10SM CLR 22/16 A3007 RMK AO2 T02200164
K3N8 181435Z AUTO 19007KT 10SM CLR 22/16 A3007 RMK AO2 T02180164
K3N8 181415Z AUTO 20008KT 10SM SCT055 21/16 A3008 RMK AO2 T02120162
K3N8 181355Z AUTO 19007KT 10SM BKN055 21/16 A3008 RMK AO2 T02110161
K3N8 181335Z AUTO 18004KT 10SM SCT055 20/17 A3008 RMK AO2 T02000165
K3N8 181315Z AUTO 17003KT 10SM SCT055 20/17 A3008 RMK AO2 T01960165
K3N8 181255Z AUTO 16004KT 10SM SCT055 19/16 A3008 RMK AO2 T01910160
K3N8 181235Z AUTO 15004KT 10SM BKN055 18/16 A3009 RMK AO2 T01830157
K3N8 181215Z AUTO 15003KT 10SM BKN055 17/15 A3009 RMK AO2 T01680147
K3N8 181155Z AUTO 14004KT 10SM BKN055 16/14 A3008 RMK AO2 T01600138 10160 20125
K3N8 181135Z AUTO 13003KT 10SM CLR 15/13 A3009 RMK AO2 T01520133
K3N8 181115Z AUTO 13004KT 10SM CLR 14/13 A3008 RMK AO2 T01420127
K3N8 181055Z AUTO 14003KT 10SM CLR 14/13 A3009 RMK AO2 T01400129
K3N8 181035Z AUTO 12003KT 10SM CLR 13/12 A3009 RMK AO2 T01280116
K3N8 181015Z AUTO 12003KT 10SM CLR 13/12 A3009 RMK AO2 T01280118
K3N8 180955Z AUTO 12003KT 10SM CLR 13/12 A3009 RMK AO2 T01300119
K3N8 180930Z AUTO 00000KT 10SM CLR 14/13 A3009 RMK AO2 T01360125
K3N8 180915Z AUTO 15003KT 10SM CLR 13/12 A3009 RMK AO2 T01330124
K3N8 180855Z AUTO 16003KT 10SM CLR 13/12 A3009 RMK AO2 T01340122
K3N8 180835Z AUTO 15003KT 10SM CLR 14/12 A3009 RMK AO2 T01360124
K3N8 180815Z AUTO 15003KT 10SM CLR 14/13 A3009 RMK AO2 T01360130
K3N8 180755Z AUTO 00000KT 10SM CLR 14/13 A3009 RMK AO2 T01360131
K3N8 180735Z AUTO 00000KT 10SM CLR 14/13 A3009 RMK AO2 T01420132
K3N8 180715Z AUTO 13003KT 10SM CLR 14/13 A3009 RMK AO2 T01370128